• Join FlightAware (Why Join?)
  • Login
  • US Flag 
08:49PM EST


 

Airport Tracker/Info


-or-


 

Live Flight TrackerFlight Track Log ✈ AAL1491 ✈ 18-May-2013 ✈ KDCA - KDFW

Flight Track Log - Related Links

Times and Time Zones

All times are in EDT time to prevent confusion due to time zone crossing. See the AAL1491 flight status page for this flight to view local times or setup timezone preferences in your user account.

Time Position Orientation Groundspeed Altitude Reporting Facility
EDT Latitude Longitude Course Direction KTS MPH feet Rate Location/Type
11:17AM 38.8290 -77.0350 172° South 160 184 800  Level FlightAware
11:17AM 38.8080 -77.0310 172° South 187 215 1,500 1,740 Climbing FlightAware
11:18AM 38.7800 -77.0290 177° South 227 261 2,400 1,860 Climbing FlightAware
11:18AM 38.7620 -77.0280 178° South 244 281 2,900 2,400 Climbing FlightAware
11:18AM 38.7510 -77.0310 192° South 245 282 3,400 3,120 Climbing FlightAware
11:18AM 38.7390 -77.0480 228° Southwest 260 299 4,200 3,360 Climbing FlightAware
11:19AM 38.7340 -77.0680 252° West 263 303 5,100 3,240 Climbing FlightAware
11:19AM 38.7310 -77.1010 263° West 271 312 6,100 3,120 Climbing FlightAware
11:19AM 38.7360 -77.1320 282° West 275 316 7,200 3,240 Climbing FlightAware
11:20AM 38.7500 -77.1790 291° West 283 326 8,800 2,700 Climbing FlightAware
11:20AM 38.7670 -77.2460 288° West 305 351 10,400 2,640 Climbing FlightAware
11:21AM 38.7750 -77.3300 277° West 320 368 12,600 2,820 Climbing FlightAware
11:22AM 38.7820 -77.4050 277° West 327 376 14,400 2,580 Climbing FlightAware
11:22AM 38.7900 -77.4840 277° West 337 388 16,100 1,620 Climbing FlightAware
11:23AM 38.7980 -77.5740 277° West 350 403 16,700 420 Climbing FlightAware
11:24AM 38.8050 -77.6550 276° West 350 403 16,700 720 Level FlightAware
11:25AM 38.8140 -77.7520 277° West 360 414 17,800 1,860 Climbing FlightAware
11:25AM 38.8220 -77.8350 277° West 364 419 19,400 2,160 Climbing FlightAware
11:26AM 38.8300 -77.9230 277° West 379 436 20,700 1,800 Climbing FlightAware
11:27AM 38.8380 -78.0240 276° West 394 453 22,000 1,740 Climbing FlightAware
11:27AM 38.8470 -78.1200 277° West 404 465 23,200 1,680 Climbing FlightAware
11:28AM 38.8540 -78.2240 275° West 416 479 24,400 1,620 Climbing FlightAware
11:29AM 38.8530 -78.3300 269° West 424 488 25,500 1,680 Climbing FlightAware
11:30AM 38.8520 -78.4410 269° West 428 493 26,800 1,620 Climbing FlightAware
11:30AM 38.8500 -78.5430 269° West 432 497 27,800 1,380 Climbing FlightAware
11:31AM 38.8490 -78.6410 269° West 437 503 28,700 1,320 Climbing FlightAware
11:32AM 38.8470 -78.7610 269° West 442 509 29,700 1,440 Climbing FlightAware
11:32AM 38.8460 -78.8680 269° West 438 504 30,800 1,500 Climbing FlightAware
11:33AM 38.8440 -78.9700 269° West 438 504 31,700 1,200 Climbing FlightAware
11:34AM 38.8420 -79.0830 269° West 442 509 32,500 1,020 Climbing FlightAware
11:34AM 38.8390 -79.1890 268° West 446 513 33,200 1,080 Climbing FlightAware
11:35AM 38.8210 -79.3060 259° West 447 514 34,100 1,080 Climbing FlightAware
11:36AM 38.8020 -79.4070 256° West 447 514 34,800 1,200 Climbing FlightAware
11:37AM 38.7820 -79.5230 258° West 441 507 35,800 1,320 Climbing FlightAware
11:37AM 38.7630 -79.6280 257° West 436 502 36,700 1,080 Climbing FlightAware
11:38AM 38.7450 -79.7260 257° West 433 498 37,300 720 Climbing FlightAware
11:39AM 38.7270 -79.8230 257° West 434 499 37,700 480 Climbing FlightAware
11:39AM 38.7050 -79.9390 256° West 438 504 38,000 180 Climbing FlightAware
11:40AM 38.6840 -80.0550 257° West 439 505 38,000  Level FlightAware
11:41AM 38.6650 -80.1530 256° West 439 505 38,000  Level FlightAware
11:41AM 38.6420 -80.2720 256° West 439 505 38,000  Level FlightAware
11:42AM 38.6240 -80.3700 257° West 438 504 38,000  Level FlightAware
11:43AM 38.6050 -80.4720 257° West 437 503 38,000  Level FlightAware
11:44AM 38.5840 -80.5800 256° West 437 503 38,000  Level FlightAware
11:44AM 38.5680 -80.6660 257° West 437 503 38,000  Level FlightAware
11:45AM 38.5380 -80.8190 256° West 438 504 38,000  Level FlightAware
11:46AM 38.5160 -80.9330 256° West 438 504 38,000  Level FlightAware
11:47AM 38.4970 -81.0330 256° West 438 504 38,000  Level FlightAware
11:47AM 38.4740 -81.1480 256° West 438 504 38,000  Level FlightAware
11:48AM 38.4540 -81.2490 256° West 436 502 38,000  Level FlightAware
11:49AM 38.4340 -81.3490 256° West 438 504 38,000  Level FlightAware
11:49AM 38.4130 -81.4570 256° West 440 506 38,000  Level FlightAware
11:50AM 38.3904 -81.5681 255° West 443 510 38,000  Level FlightAware ADS-B
11:51AM 38.3690 -81.6743 256° West 444 511 38,000  Level FlightAware ADS-B
11:51AM 38.3474 -81.7774 255° West 444 511 38,000  Level FlightAware ADS-B
11:52AM 38.3200 -81.8750 250° West 445 512 38,000  Level FlightAware
11:52AM 38.3120 -81.9046 251° West 447 514 38,000  Level FlightAware ADS-B
11:53AM 38.2901 -81.9827 250° West 444 511 38,000  Level FlightAware ADS-B
11:53AM 38.2671 -82.0645 250° West 444 511 38,000  Level FlightAware ADS-B
11:54AM 38.2437 -82.1469 250° West 445 512 38,000  Level FlightAware ADS-B
11:55AM 38.2101 -82.2653 250° West 445 512 38,000  Level FlightAware ADS-B
11:55AM 38.1882 -82.3426 250° West 445 512 38,000  Level FlightAware ADS-B
11:56AM 38.1602 -82.4405 250° West 444 511 38,000  Level FlightAware ADS-B
11:57AM 38.1362 -82.5247 250° West 444 511 38,000  Level FlightAware ADS-B
11:57AM 38.1117 -82.6098 250° West 444 511 38,000  Level FlightAware ADS-B
11:58AM 38.0901 -82.6845 250° West 444 511 38,000  Level FlightAware ADS-B
11:58AM 38.0644 -82.7734 250° West 444 511 38,000  Level FlightAware ADS-B
11:59AM 38.0240 -82.9140 250° West 444 511 38,000  Level FlightAware
12:00PM 37.9870 -83.0350 249° West 443 510 38,000  Level FlightAware
12:01PM 37.9560 -83.1440 250° West 443 510 38,000  Level FlightAware
12:01PM 37.9390 -83.2030 250° West 444 511 38,000  Level FlightAware ADS-B
12:02PM 37.9160 -83.2816 250° West 444 511 38,000  Level FlightAware ADS-B
12:02PM 37.8929 -83.3597 249° West 443 510 38,000  Level FlightAware ADS-B
12:03PM 37.8652 -83.4537 250° West 443 510 38,000  Level FlightAware ADS-B
12:03PM 37.8419 -83.5321 249° West 443 510 38,000  Level FlightAware ADS-B
12:04PM 37.8140 -83.6260 249° West 441 507 38,000  Level FlightAware
12:04PM 37.8053 -83.6546 249° West 443 510 38,000  Level FlightAware ADS-B
12:05PM 37.7840 -83.7250 249° West 440 506 38,000  Level FlightAware
12:05PM 37.7800 -83.7387 250° West 441 507 38,000  Level FlightAware ADS-B
12:05PM 37.7538 -83.8266 249° West 440 506 38,000  Level FlightAware ADS-B
12:06PM 37.7263 -83.9179 249° West 439 505 38,000  Level FlightAware ADS-B
12:07PM 37.6990 -84.0090 249° West 438 504 38,000  Level FlightAware
12:07PM 37.6814 -84.0664 249° West 438 504 38,000  Level FlightAware ADS-B
12:08PM 37.6591 -84.1395 249° West 437 503 38,000  Level FlightAware ADS-B
12:08PM 37.6346 -84.2202 249° West 437 503 38,000  Level FlightAware ADS-B
12:09PM 37.6073 -84.3091 249° West 436 502 38,000  Level FlightAware ADS-B
12:09PM 37.5826 -84.3894 249° West 435 501 38,000  Level FlightAware ADS-B
12:10PM 37.5585 -84.4677 249° West 435 501 38,000  Level FlightAware ADS-B
12:11PM 37.5308 -84.5572 249° West 434 499 38,000  Level FlightAware ADS-B
12:11PM 37.5085 -84.6290 249° West 434 499 38,000  Level FlightAware ADS-B
12:12PM 37.4730 -84.7432 249° West 433 498 38,000  Level FlightAware ADS-B
12:13PM 37.4448 -84.8343 249° West 432 497 38,000  Level FlightAware ADS-B
12:13PM 37.4229 -84.9049 249° West 433 498 38,000  Level FlightAware ADS-B
12:14PM 37.3995 -84.9801 249° West 433 498 38,000  Level FlightAware ADS-B
12:14PM 37.3773 -85.0512 249° West 433 498 38,000  Level FlightAware ADS-B
12:15PM 37.3542 -85.1243 248° West 434 499 38,000  Level FlightAware ADS-B
12:15PM 37.3314 -85.1964 248° West 433 498 38,000  Level FlightAware ADS-B
12:16PM 37.3090 -85.2671 248° West 432 497 38,000  Level FlightAware ADS-B
12:16PM 37.2862 -85.3395 248° West 432 497 38,000  Level FlightAware ADS-B
12:17PM 37.2632 -85.4116 248° West 431 496 38,000  Level FlightAware ADS-B
12:17PM 37.2406 -85.4827 248° West 430 495 38,000  Level FlightAware ADS-B
12:18PM 37.2173 -85.5557 248° West 430 495 38,000  Level FlightAware ADS-B
12:18PM 37.1950 -85.6257 248° West 429 494 38,000  Level FlightAware ADS-B
12:19PM 37.1725 -85.6954 248° West 427 491 38,000  Level FlightAware ADS-B
12:19PM 37.1476 -85.7727 248° West 427 491 38,000  Level FlightAware ADS-B
12:20PM 37.1248 -85.8429 248° West 427 491 38,000  Level FlightAware ADS-B
12:20PM 37.1016 -85.9144 248° West 429 494 38,000  Level FlightAware ADS-B
12:21PM 37.0590 -86.0460 248° West 433 498 38,000  Level FlightAware
12:22PM 37.0280 -86.1370 247° West 433 498 38,000  Level FlightAware
12:23PM 37.0020 -86.2160 248° West 433 498 38,000  Level FlightAware
12:23PM 36.9600 -86.3487 248° West 431 496 38,000  Level FlightAware ADS-B
12:24PM 36.9371 -86.4183 248° West 430 495 38,000  Level FlightAware ADS-B
12:24PM 36.9151 -86.4832 247° West 430 495 38,000  Level FlightAware ADS-B
12:25PM 36.8884 -86.5563 245° Southwest 430 495 38,000  Level FlightAware ADS-B
12:25PM 36.8635 -86.6239 245° Southwest 429 494 38,000  Level FlightAware ADS-B
12:26PM 36.8376 -86.6927 245° Southwest 428 493 38,000  Level FlightAware ADS-B
12:27PM 36.8112 -86.7649 245° Southwest 427 491 38,000  Level FlightAware ADS-B
12:27PM 36.7862 -86.8358 246° West 428 493 38,000  Level FlightAware ADS-B
12:28PM 36.7601 -86.9095 246° West 432 497 38,000  Level FlightAware ADS-B
12:28PM 36.7347 -86.9806 246° West 432 497 38,000  Level FlightAware ADS-B
12:29PM 36.6910 -87.1000 245° Southwest 430 495 38,000  Level FlightAware
12:30PM 36.6580 -87.1920 246° West 429 494 38,000  Level FlightAware
12:30PM 36.6250 -87.2810 245° Southwest 430 495 38,000  Level FlightAware
12:31PM 36.5890 -87.3790 245° Southwest 430 495 38,000  Level FlightAware
12:32PM 36.5550 -87.4690 245° Southwest 429 494 38,000  Level FlightAware
12:33PM 36.5170 -87.5730 246° West 430 495 38,000  Level FlightAware
12:33PM 36.4850 -87.6580 245° Southwest 429 494 38,000  Level FlightAware
12:34PM 36.4470 -87.7600 245° Southwest 427 491 38,000  Level FlightAware
12:35PM 36.4140 -87.8490 245° Southwest 427 491 38,000  Level FlightAware
12:35PM 36.3810 -87.9370 245° Southwest 426 490 38,000  Level FlightAware
12:36PM 36.3430 -88.0380 245° Southwest 425 489 38,000  Level FlightAware
12:37PM 36.3100 -88.1270 245° Southwest 425 489 38,000  Level FlightAware
12:37PM 36.2770 -88.2130 245° Southwest 424 488 38,000  Level FlightAware
12:38PM 36.2440 -88.2980 244° Southwest 424 488 38,000  Level FlightAware
12:39PM 36.2140 -88.3730 244° Southwest 424 488 38,000  Level FlightAware
12:39PM 36.1850 -88.4470 244° Southwest 424 488 38,000  Level FlightAware
12:40PM 36.1560 -88.5210 244° Southwest 424 488 38,000  Level FlightAware
12:41PM 36.1270 -88.5950 244° Southwest 424 488 38,000  Level FlightAware
12:42PM 36.0900 -88.6880 244° Southwest 424 488 38,000  Level FlightAware
12:42PM 36.0610 -88.7620 244° Southwest 424 488 38,000  Level FlightAware
12:43PM 36.0320 -88.8360 244° Southwest 424 488 38,000  Level FlightAware
12:44PM 36.0020 -88.9110 244° Southwest 424 488 38,000  Level FlightAware
12:44PM 35.9730 -88.9850 244° Southwest 424 488 38,000  Level FlightAware
12:45PM 35.9360 -89.0770 244° Southwest 424 488 38,000  Level FlightAware
12:46PM 35.9070 -89.1510 244° Southwest 424 488 38,000  Level FlightAware
12:46PM 35.8780 -89.2250 244° Southwest 424 488 38,000  Level FlightAware
12:47PM 35.8490 -89.2990 244° Southwest 424 488 38,000  Level FlightAware
12:47PM 35.7700 -89.5153 244° Southwest 424 488 38,000  Level Memphis Center
12:48PM 35.7167 -89.6486 244° Southwest 429 494 38,000  Level Memphis Center
12:49PM 35.6672 -89.7897 247° West 423 487 38,000  Level Memphis Center
12:50PM 35.6156 -89.9178 244° Southwest 417 480 38,000  Level Memphis Center
12:51PM 35.5639 -90.0483 244° Southwest 417 480 38,000  Level Memphis Center
12:52PM 35.5142 -90.1758 244° Southwest 422 486 38,000  Level Memphis Center
12:53PM 35.4622 -90.3036 244° Southwest 422 486 38,000  Level Memphis Center
12:54PM 35.4100 -90.4308 243° Southwest 422 486 38,000  Level Memphis Center
12:55PM 35.3639 -90.5456 244° Southwest 422 486 38,000  Level Memphis Center
12:56PM 35.3136 -90.6700 244° Southwest 417 480 38,000  Level Memphis Center
12:57PM 35.2611 -90.7994 244° Southwest 417 480 38,000  Level Memphis Center
12:58PM 35.2083 -90.9211 242° Southwest 412 474 38,000  Level Memphis Center
12:59PM 35.1556 -91.0478 243° Southwest 412 474 38,000  Level Memphis Center
01:00PM 35.1050 -91.1719 244° Southwest 412 474 38,000  Level Memphis Center
01:01PM 35.0539 -91.2983 244° Southwest 412 474 38,000  Level Memphis Center
01:02PM 35.0008 -91.4167 241° Southwest 412 474 38,000  Level Memphis Center
01:03PM 34.9411 -91.5528 242° Southwest 407 468 38,000  Level Memphis Center
01:04PM 34.8919 -91.6786 245° Southwest 412 474 38,000  Level Memphis Center
01:05PM 34.8364 -91.8069 242° Southwest 419 482 38,000  Level Memphis Center
01:06PM 34.7825 -91.9300 242° Southwest 419 482 38,000  Level Memphis Center
01:07PM 34.7308 -92.0528 243° Southwest 419 482 38,000  Level Memphis Center
01:08PM 34.6792 -92.1781 243° Southwest 419 482 38,000  Level Memphis Center
01:09PM 34.6439 -92.3033 251° West 414 476 38,000  Level Memphis Center
01:10PM 34.6103 -92.4389 253° West 414 476 38,000  Level Memphis Center
01:11PM 34.5747 -92.5667 251° West 409 471 38,000  Level Memphis Center
01:12PM 34.5411 -92.6969 253° West 409 471 38,000  Level Memphis Center
01:13PM 34.5053 -92.8244 251° West 409 471 38,000  Level Memphis Center
01:14PM 34.4692 -92.9519 251° West 404 465 38,000  Level Memphis Center
01:15PM 34.4353 -93.0844 253° West 404 465 38,000  Level Memphis Center
01:16PM 34.4011 -93.2117 252° West 410 472 38,000  Level Memphis Center
01:17PM 34.3644 -93.3439 251° West 410 472 38,000  Level Memphis Center
01:19PM 34.3275 -93.5031 254° West 390 449 38,000  Level Fort Worth Center
01:20PM 34.2936 -93.6303 252° West 390 449 38,000  Level Fort Worth Center
01:21PM 34.2558 -93.7575 250° West 395 455 38,000 -300 Level Fort Worth Center
01:26PM 34.0360 -94.4480 250° West 398 458 36,200 -420 Descending FlightAware
01:27PM 34.0090 -94.5300 248° West 390 449 35,500 -1,080 Descending FlightAware
01:28PM 33.9840 -94.6070 249° West 388 447 34,800 -1,080 Descending FlightAware
01:28PM 33.9540 -94.7020 249° West 384 442 34,000 -780 Descending FlightAware
01:29PM 33.9200 -94.8040 248° West 382 440 33,500 -360 Descending FlightAware
01:30PM 33.8970 -94.8710 248° West 382 440 33,500  Level FlightAware
01:31PM 33.8750 -94.9380 248° West 382 440 33,500 -1,740 Level FlightAware
01:31PM 33.8360 -95.0610 249° West 370 426 30,900 -2,100 Descending FlightAware
01:32PM 33.8090 -95.1420 248° West 393 452 30,400 -900 Descending FlightAware
01:33PM 33.7780 -95.2360 248° West 407 468 29,700 -900 Descending FlightAware
01:33PM 33.7500 -95.3220 249° West 423 487 29,200 -1,020 Descending FlightAware
01:34PM 33.7210 -95.4090 248° West 423 487 28,400 -1,860 Descending FlightAware
01:35PM 33.6890 -95.5040 248° West 411 473 26,600 -2,400 Descending FlightAware
01:36PM 33.6610 -95.5890 248° West 402 463 25,000 -2,400 Descending FlightAware
01:36PM 33.6350 -95.6690 249° West 394 453 23,400 -2,340 Descending FlightAware
01:37PM 33.6040 -95.7600 248° West 384 442 21,700 -2,280 Descending FlightAware
01:38PM 33.5740 -95.8470 248° West 376 433 20,000 -2,280 Descending FlightAware
01:38PM 33.5490 -95.9240 249° West 372 428 18,500 -2,400 Descending FlightAware
01:39PM 33.5210 -96.0040 247° West 390 449 16,800 -2,640 Descending FlightAware
01:40PM 33.4940 -96.0850 248° West 388 447 15,000 -2,100 Descending FlightAware
01:40PM 33.4650 -96.1700 248° West 360 414 13,900 -1,440 Descending FlightAware
01:41PM 33.4470 -96.2230 248° West 334 384 13,200 -1,200 Descending FlightAware
01:42PM 33.4230 -96.2870 246° West 300 345 12,500 -1,140 Descending FlightAware
01:42PM 33.3850 -96.3440 231° Southwest 284 327 11,600 -1,200 Descending FlightAware
01:43PM 33.3530 -96.3920 231° Southwest 283 326 10,800 -1,200 Descending FlightAware
01:44PM 33.3340 -96.4510 249° West 283 326 10,000 -1,140 Descending FlightAware
01:44PM 33.3230 -96.4970 254° West 280 322 9,500 -1,020 Descending FlightAware
01:45PM 33.3150 -96.5320 255° West 276 318 9,100 -1,140 Descending FlightAware
01:45PM 33.3050 -96.5750 254° West 271 312 8,500 -1,200 Descending FlightAware
01:46PM 33.2950 -96.6190 255° West 269 310 7,900 -1,140 Descending FlightAware
01:46PM 33.2860 -96.6550 253° West 265 305 7,500 -1,080 Descending FlightAware
01:46PM 33.2810 -96.6750 253° West 264 304 7,200 -1,080 Descending FlightAware
01:47PM 33.2710 -96.7170 254° West 261 300 6,700 -1,140 Descending FlightAware
01:47PM 33.2630 -96.7520 255° West 255 293 6,200 -780 Descending FlightAware
01:48PM 33.2540 -96.7920 255° West 234 269 6,000 -480 Descending FlightAware
01:48PM 33.2470 -96.8200 253° West 220 253 5,800 -660 Descending FlightAware
01:49PM 33.2390 -96.8530 254° West 213 245 5,400 -720 Descending FlightAware
01:49PM 33.2310 -96.8880 255° West 207 238 5,100 -480 Descending FlightAware
01:50PM 33.2250 -96.9140 255° West 179 206 5,000 -180 Descending FlightAware
01:50PM 33.2220 -96.9270 255° West 173 199 5,000  Level FlightAware
01:50PM 33.2150 -96.9530 252° West 167 192 5,000  Level FlightAware
01:51PM 33.2100 -96.9770 256° West 167 192 5,000  Level FlightAware
01:51PM 33.2050 -96.9870 239° Southwest 161 185 5,000  Level FlightAware
01:51PM 33.1870 -97.0050 220° Southwest 159 183 5,000  Level FlightAware
01:52PM 33.1800 -97.0090 206° Southwest 159 183 5,000 120 Level FlightAware
01:52PM 33.1610 -97.0180 202° Southwest 159 183 5,100 120 Climbing FlightAware
01:52PM 33.1500 -97.0230 201° Southwest 159 183 5,100 -600 Level FlightAware
01:53PM 33.1310 -97.0250 185° South 164 189 4,700 -840 Descending FlightAware
01:53PM 33.1280 -97.0250 180° South 163 188 4,700 -840 Level FlightAware
01:54PM 33.0970 -97.0250 180° South 158 182 4,100 -900 Descending FlightAware
01:54PM 33.0870 -97.0250 180° South 153 176 3,900 -780 Descending FlightAware
01:54PM 33.0690 -97.0250 180° South 153 176 3,600 -840 Descending FlightAware
01:54PM 33.0670 -97.0250 180° South 154 177 3,500 -1,020 Descending FlightAware
01:55PM 33.0290 -97.0250 180° South 165 190 2,700 -960 Descending FlightAware
01:55PM 33.0160 -97.0250 180° South 166 191 2,500 -780 Descending FlightAware
01:56PM 32.9990 -97.0260 183° South 159 183 2,200 -780 Descending FlightAware
01:56PM 32.9770 -97.0260 180° South 142 163 1,800 -720 Descending FlightAware
01:57PM 32.9650 -97.0260 180° South 137 158 1,600 -600 Descending FlightAware